New Harbor, ME

43° 52' 34"N, 69° 29' 40"W, Elevation 65 ft.
Eastern Time

Hourly observations for the last 72 hours

Date Time Temperature (°F) Humi-
dity

(%)
Wind
(mph)
Pressure Rain (in) Sun
(W/m2)
ET
(in)
Air Dew 6 Hour 1 Hr 3 Hr 6 Hr Day
Alt
(in)
Sea
Level

(mb)
Max Min
30 10:00 50.0 29.5 45 NE 10 G 15 30.25 1024.6 0.00 780 0.031
30 09:00 48.1 28.8 47 N 5 G 15 30.25 1024.6 0.00 550 0.022
30 08:00 46.1 28.5 50.0 40.5 50 NNW 4 G 19 30.23 1023.6 0.00 327 0.017
30 07:00 43.1 27.1 53 N 5 G 10 30.22 1023.2 0.00 47 0.015
30 06:00 40.6 27.0 58 N 3 G 10 30.20 1022.9 0.00 18 0.014
30 05:00 41.5 26.1 54 N 4 G 12 30.17 1021.6 0.00 0 0.012
30 04:00 42.7 25.8 51 N 4 G 16 30.16 1021.4 0.00 0 0.010
30 03:00 45.2 27.7 50 NW 6 G 16 30.12 1020.1 0.00 0 0.007
30 02:00 50.0 31.6 70.2 49.9 49 NNW 5 G 12 30.07 1018.3 0.00 0 0.004
30 01:00 53.2 34.0 48 N 11 G 19 30.01 1016.2 0.00 0 0.000
30 00:00 58.8 36.4 43 N 6 G 18 29.98 1015.1 0.00 0 0.111
29 23:00 62.5 35.9 37 NNW 9 G 20 29.92 1013.3 0.00 0 0.106
29 22:00 64.9 42.5 44 NW 7 G 16 29.88 1011.9 0.00 0 0.102
29 21:00 68.1 46.6 46 NW 3 G 12 29.83 1010.1 0.00 0 0.098
29 20:00 69.4 47.2 76.2 64.6 45 NW 5 G 15 29.79 1008.9 0.00 0 0.096
29 19:00 69.6 53.2 56 SW 1 G 4 29.75 1007.6 0.00 39 0.093
29 18:00 74.9 53.9 48 SSW 3 G 10 29.72 1006.5 0.00 113 0.086
29 17:00 75.6 54.6 48 S 3 G 9 29.72 1006.6 0.00 202 0.076
29 16:00 74.0 54.2 50 WSW 2 G 9 29.73 1006.8 0.00 288 0.062
29 15:00 67.0 54.0 63 S 3 G 8 29.75 1007.4 0.00 357 0.052
29 14:00 66.1 53.6 69.0 49.9 64 SSW 3 G 9 29.76 1008.0 0.00 397 0.042
29 13:00 68.3 54.3 61 SSW 5 G 10 29.77 1008.2 0.00 364 0.030
29 12:00 65.7 56.0 71 SSW 1 G 10 29.81 1009.5 0.00 592 0.020
29 11:00 64.0 56.3 76 SSW 5 G 12 29.86 1011.1 0.00 330 0.009
29 10:00 58.1 53.0 83 SW 3 G 12 29.86 1011.3 0.00 415 0.003
29 09:00 53.0 48.9 86 SW 3 G 10 29.89 1012.1 0.00 146 0.001
29 08:00 50.2 49.9 50.2 44.3 99 Calm 29.91 1012.8 0.00 120 0.000
29 07:00 48.8 48.5 99 Calm 29.91 1013.0 0.00 42 0.000
29 06:00 47.6 47.3 99 Calm 29.92 1013.4 0.00 0 0.000
29 05:00 48.5 48.2 99 Calm 29.92 1013.3 0.00 0 0.000
29 04:00 47.7 47.4 99 Calm 29.92 1013.1 0.00 0 0.000
29 03:00 46.6 46.3 99 Calm 29.94 1013.9 0.00 0 0.000
29 02:00 44.4 43.9 51.1 43.6 98 NW 0 G 5 29.94 1013.9 0.00 0 0.000
29 01:00 44.7 43.9 97 Calm 29.93 1013.6 0.00 0 0.000
29 00:00 46.5 45.7 97 SE 0 G 1 29.92 1013.3 0.06 0 0.052
28 23:00 46.9 46.4 98 Calm 29.93 1013.6 0.06 0 0.052
28 22:00 47.6 46.8 97 Calm 29.93 1013.4 0.06 0 0.052
28 21:00 49.5 48.4 96 SE 0 G 4 29.92 1013.4 0.06 0 0.052
28 20:00 51.1 50.3 58.3 51.1 97 Calm 29.91 1012.9 0.06 0 0.052
28 19:00 52.3 50.9 95 Calm 29.90 1012.5 0.06 30 0.051
28 18:00 52.0 50.0 93 SSE 0 G 2 29.90 1012.5 0.06 102 0.049
28 17:00 53.2 48.8 85 SE 2 G 5 29.90 1012.6 0.06 276 0.041
28 16:00 57.6 52.8 84 Calm 29.90 1012.5 0.06 561 0.031
28 15:00 56.6 52.5 86 Calm 29.92 1013.2 0.06 628 0.020
28 14:00 51.7 51.2 53.2 47.8 98 ESE 1 G 3 29.92 1013.3 0.03 0.06 0.06 315 0.014
28 13:00 52.7 52.4 99 S 0 G 2 29.93 1013.5 0.02 0.06 564 0.010
28 12:00 49.9 49.6 99 Calm 29.93 1013.6 0.01 0.04 58 0.007
28 11:00 50.1 49.8 99 Calm 29.95 1014.1 0.03 0.03 141 0.004
28 10:00 49.7 49.4 99 Calm 29.95 1014.3 0.02 0.03 141 0.002
28 09:00 48.1 47.8 99 Calm 29.95 1014.3 0.01 0.01 93 0.001
28 08:00 48.2 47.9 48.3 44.5 99 Calm 29.95 1014.2 0.00 95 0.000
28 07:00 46.7 46.4 99 Calm 29.95 1014.2 0.00 35 0.000
28 06:00 45.7 45.4 99 Calm 29.94 1014.1 0.00 0 0.000
28 05:00 45.6 45.3 99 Calm 29.93 1013.7 0.00 0 0.000
28 04:00 44.8 44.3 98 SE 0 G 2 29.93 1013.6 0.00 0 0.000
28 03:00 44.6 44.1 98 Calm 29.92 1013.4 0.00 0 0.000
28 02:00 45.2 44.7 47.0 44.9 98 Calm 29.93 1013.6 0.00 0 0.000
28 01:00 45.1 44.6 98 ENE 0 G 2 29.93 1013.6 0.00 0 0.000
28 00:00 45.4 45.1 99 Calm 29.94 1013.8 0.01 0 0.040
27 23:00 45.0 44.5 98 Calm 29.94 1014.1 0.01 0 0.040
27 22:00 45.0 44.5 98 Calm 29.94 1014.1 0.01 0 0.040
27 21:00 45.0 44.2 97 ESE 2 G 5 29.93 1013.7 0.01 0 0.040
27 20:00 47.0 46.2 51.0 47.0 97 Calm 29.91 1012.8 0.01 0 0.040
27 19:00 47.3 46.2 96 ENE 1 G 3 29.90 1012.6 0.01 26 0.039
27 18:00 47.8 46.2 94 E 0 G 3 29.91 1013.0 0.01 95 0.037
27 17:00 49.3 47.6 94 ENE 1 G 2 29.91 1012.9 0.01 141 0.034
27 16:00 49.7 48.3 95 ESE 2 G 3 29.92 1013.2 0.01 128 0.031
27 15:00 49.7 48.6 96 NE 5 G 8 29.92 1013.3 0.01 220 0.028
27 14:00 51.0 49.6 52.5 47.0 95 ENE 3 G 7 29.93 1013.6 0.01 0.01 183 0.023
27 13:00 52.2 51.7 98 E 0 G 6 29.92 1013.2 0.01 308 0.017
27 12:00 51.2 50.9 99 E 2 G 7 29.93 1013.4 0.01 322 0.011
27 11:00 51.0 50.7 99 E 4 G 8 29.93 1013.4 0.01 0.01 320 0.006

Data generated by WxSolution Version 1.9.0.6, Build 2017.01.14.